Date,TemperatureHighF,TemperatureAvgF,TemperatureLowF,DewpointHighF,DewpointAvgF,DewpointLowF,HumidityHigh,HumidityAvg,HumidityLow,PressureMaxIn,PressureMinIn,WindSpeedMaxMPH,WindSpeedAvgMPH,GustSpeedMaxMPH,PrecipitationSumIn
2013-10-10,58.0,53.7,45.0,51.6,49.8,44.2,99,87,76,29.55,29.49,8,3,8,0.00
2013-10-11,71.0,55.1,43.0,55.0,47.2,42.0,100,78,37,29.51,29.33,12,3,12,0.00
2013-10-12,57.0,51.0,44.0,55.7,50.2,42.9,100,97,92,29.69,29.48,13,5,16,0.00
2013-10-13,57.0,50.6,39.0,51.6,47.4,38.7,100,90,73,29.75,29.67,12,4,14,0.00
2013-10-14,68.0,51.6,39.0,53.0,42.6,37.0,100,76,35,29.76,29.49,9,2,10,0.00
2013-10-15,69.0,56.2,48.0,54.5,49.9,45.6,98,81,55,29.58,29.43,9,2,12,0.00
2013-10-16,60.0,52.9,46.0,55.0,50.6,45.7,100,92,71,29.50,29.24,7,2,9,0.00
2013-10-17,73.0,60.7,48.0,60.0,55.7,47.7,100,86,52,29.25,29.01,15,5,16,0.00
2013-10-18,67.0,58.1,42.0,60.7,49.5,40.7,100,76,46,29.26,28.90,15,5,20,0.00
2013-10-19,66.0,52.1,36.0,47.7,41.6,36.0,100,71,38,29.33,29.05,13,4,14,0.00
2013-10-20,61.0,51.3,37.0,52.0,39.5,30.8,100,68,33,29.39,29.01,13,4,22,0.00
2013-10-21,66.0,50.7,34.0,46.6,38.9,34.0,100,69,33,29.45,29.27,15,4,15,0.00
2013-10-22,64.0,52.4,43.0,51.7,45.2,36.3,100,78,55,29.31,28.99,14,5,19,0.00
2013-10-23,50.0,42.6,32.0,41.4,34.3,29.7,100,75,47,29.17,28.91,7,2,8,0.00
2013-10-24,52.0,44.3,37.0,36.0,29.5,22.8,86,58,34,29.23,28.98,16,6,23,0.00
2013-10-25,51.0,39.2,28.0,36.0,29.0,25.6,100,69,40,29.53,29.23,13,3,17,0.00
2013-10-26,53.0,41.9,28.0,34.5,29.7,23.6,100,66,34,29.53,29.19,28,7,28,0.00
2013-10-27,54.0,46.8,41.0,36.8,32.8,27.5,76,59,40,29.40,29.13,15,5,17,0.00
2013-10-28,58.0,44.2,32.0,35.9,31.6,25.0,94,63,43,29.70,29.38,16,5,20,0.00
2013-10-29,38.0,27.4,24.0,31.7,24.7,22.4,100,90,63,29.82,29.70,6,1,7,0.00
2013-10-31,59.0,57.0,51.0,59.0,55.9,51.0,100,96,86,29.43,29.08,16,6,25,0.01
2013-11-1,67.0,62.2,53.0,63.1,57.1,49.8,100,84,66,29.06,28.73,26,10,39,0.05
2013-11-2,67.0,52.8,41.0,51.4,44.0,39.5,100,76,39,29.07,28.86,8,2,39,0.00
2013-11-3,48.0,40.3,29.0,44.5,27.0,13.1,98,62,26,29.80,29.07,15,6,39,0.00
2013-11-4,43.0,31.2,21.0,21.3,16.7,12.1,97,58,29,30.10,29.80,12,4,39,0.02
2013-11-5,52.0,36.9,21.0,35.6,28.2,21.0,100,74,42,30.10,29.83,11,4,39,0.01
2013-11-6,60.0,49.8,39.0,49.2,41.9,35.5,90,76,52,29.83,29.34,18,7,39,0.01
2013-11-7,63.0,51.8,36.0,57.7,48.4,30.1,96,89,75,29.34,28.99,22,6,39,0.03
2013-11-8,47.0,37.1,29.0,35.3,27.2,21.8,86,68,49,29.47,29.18,17,5,39,0.06
2013-11-9,44.0,36.6,27.0,28.4,24.9,20.9,90,64,40,29.58,29.36,12,4,39,1.68
2013-11-10,55.0,43.8,37.0,41.5,35.4,28.4,96,73,52,29.36,29.05,15,5,39,0.03
2013-11-11,51.0,44.0,35.0,30.5,27.5,24.3,72,53,35,29.43,29.20,14,6,39,2.40
2013-11-12,48.0,33.2,24.0,38.3,24.7,15.0,99,72,49,29.58,29.19,23,6,39,0.04
2013-11-13,36.0,27.2,19.0,18.2,15.0,9.9,91,62,36,29.68,29.53,12,4,39,3.36
2013-11-14,51.0,39.4,28.0,25.7,19.6,15.9,64,46,33,29.53,29.34,14,7,39,3.36
2013-11-15,61.0,46.2,32.0,28.4,19.1,12.9,64,36,16,29.54,29.36,15,6,39,3.36
2013-11-16,63.0,45.9,33.0,33.0,27.5,23.1,99,52,24,29.67,29.50,7,2,39,3.36
2013-11-17,48.0,40.3,32.0,44.0,37.9,31.8,100,92,72,29.67,29.18,8,2,39,0.05
2013-11-18,64.0,55.7,44.0,61.0,44.4,31.6,100,69,40,29.18,28.81,22,6,39,0.01
2013-11-19,46.0,37.7,28.0,32.5,21.7,16.3,63,53,39,29.66,29.00,19,7,39,0.01
2013-11-20,42.0,29.6,19.0,18.8,14.5,7.9,97,56,25,30.03,29.66,15,5,39,10.56
2013-11-21,47.0,33.2,17.0,33.0,23.0,14.3,100,71,32,30.03,29.69,15,4,39,10.56
2013-11-22,47.0,43.9,41.0,46.7,42.1,33.0,100,94,73,29.69,29.13,9,3,39,0.08
2013-11-23,48.0,38.0,26.0,46.9,26.5,16.7,100,65,37,29.27,29.11,16,6,39,0.01
2013-11-24,26.0,20.8,17.0,21.2,6.4,-5.9,91,56,25,29.60,29.20,28,8,41,12.72
2013-11-25,32.0,22.9,13.0,16.1,6.0,-5.8,65,49,25,29.76,29.60,15,6,41,12.72
2013-11-26,39.0,32.7,27.0,31.8,22.2,12.2,99,67,47,29.69,29.38,13,4,41,0.07
2013-11-27,61.0,45.9,32.0,61.0,45.5,31.6,100,99,90,29.38,28.50,20,6,41,0.41
2013-11-28,35.0,27.7,20.0,32.4,16.0,6.0,93,62,37,29.81,28.83,18,7,41,0.08
2013-11-29,33.0,25.2,18.0,18.3,12.1,4.1,87,59,39,30.13,29.81,11,5,41,0.10
2013-11-30,33.0,22.9,10.0,21.7,13.3,7.6,96,67,45,30.20,29.77,10,3,41,41.28
2013-12-1,35.0,31.6,27.0,35.0,30.0,20.8,100,94,77,29.77,29.35,8,2,41,0.04
2013-12-2,39.0,36.4,35.0,39.0,36.4,35.0,100,100,100,29.35,29.25,8,2,41,0.08
2013-12-3,51.0,37.2,28.0,43.1,34.3,28.0,100,91,55,29.32,29.14,9,2,15,0.08
2013-12-4,45.0,32.9,26.0,33.8,28.2,25.6,100,85,50,29.57,29.32,10,2,11,0.01
2013-12-5,54.0,37.5,27.0,54.0,37.0,27.0,100,98,87,29.56,29.20,13,2,19,0.02
2013-12-6,55.0,46.4,32.0,55.0,44.2,32.0,100,92,72,29.49,29.13,12,4,15,0.17
2013-12-7,38.0,31.4,23.0,33.5,27.6,20.1,100,87,59,29.83,29.43,15,3,16,0.11
2013-12-8,29.0,24.8,17.0,21.8,17.7,13.9,100,75,55,29.94,29.83,8,2,10,0.11
2013-12-9,34.0,28.5,23.0,34.0,27.6,16.9,100,97,71,29.85,29.24,9,4,10,0.00
2013-12-10,34.0,29.4,21.0,32.5,27.6,17.9,100,93,81,29.39,29.14,11,5,13,0.00
2013-12-11,29.0,23.2,19.0,20.4,18.3,15.0,93,82,62,29.57,29.39,17,8,23,0.00
2013-12-12,23.0,18.2,12.0,20.3,9.5,1.9,100,71,40,29.67,29.46,15,5,15,0.00
2013-12-13,27.0,19.2,12.0,19.9,12.8,8.5,95,77,56,29.80,29.39,17,6,19,0.01
2013-12-14,14.0,10.7,8.0,14.0,6.3,-2.8,100,83,51,30.01,29.55,16,6,16,0.00
2013-12-15,27.0,21.1,14.0,25.5,19.9,14.0,100,95,79,29.55,28.85,22,7,22,0.00
2013-12-16,27.0,21.1,10.0,22.0,12.2,5.8,96,70,44,29.61,29.12,15,5,18,0.00
2013-12-17,16.0,9.0,-2.0,16.0,8.4,-2.0,100,98,81,29.71,29.35,15,5,17,0.00
2013-12-18,33.0,24.5,15.0,23.0,20.3,15.0,100,85,60,29.45,29.25,13,5,16,0.06
2013-12-19,42.0,32.6,20.0,26.7,22.7,19.5,100,68,46,29.47,29.26,22,7,25,0.10
2013-12-20,52.0,41.5,30.0,34.0,30.3,25.5,86,65,48,29.46,29.19,16,6,17,0.14
2013-12-21,56.0,47.9,41.0,48.3,41.7,31.9,94,79,67,29.26,29.12,16,7,17,0.14
2013-12-22,62.0,43.6,33.0,60.0,43.3,33.0,100,99,69,29.36,29.04,16,6,23,0.00
2013-12-23,39.0,33.2,31.0,39.0,33.2,31.0,100,100,100,29.42,29.32,11,3,13,0.30
2013-12-24,37.0,29.9,22.0,37.0,22.1,12.6,100,74,49,29.58,29.39,13,5,15,0.30
2013-12-25,22.0,16.1,11.0,13.7,6.2,1.6,91,66,43,29.92,29.58,15,5,17,0.00
2013-12-26,29.0,22.0,11.0,28.0,19.3,7.1,100,89,78,29.89,29.44,13,3,15,0.00
2013-12-27,32.0,27.0,19.0,23.7,20.7,18.8,100,78,59,29.63,29.54,13,5,16,0.01
2013-12-28,46.0,35.0,27.0,27.9,25.2,21.4,88,69,46,29.57,29.29,18,6,18,0.01
2013-12-29,41.0,35.9,29.0,38.0,31.6,25.5,100,85,65,29.36,28.80,18,5,22,1.17
2013-12-30,41.0,30.1,14.0,35.8,22.2,9.6,100,75,37,29.56,28.88,14,5,22,1.17
2013-12-31,24.0,16.5,9.0,17.1,10.2,4.4,96,78,46,29.57,29.37,12,4,15,0.00
2014-1-1,26.0,18.6,12.0,16.1,9.0,5.4,92,67,45,29.76,29.56,13,4,18,0.00
2014-1-2,18.0,9.7,1.0,17.0,9.5,0.0,100,99,84,29.73,29.30,26,9,26,0.00